Time;durP1;ratioP1;P1;durP2;ratioP2;P2;SDS_P1;SDS_P2;PMS_P1;PMS_P2;Temp;Humidity;BMP_temperature;BMP_pressure;BME280_temperature;BME280_humidity;BME280_pressure;Samples;Min_cycle;Max_cycle;Signal;HPM_P1;HPM_P2
2023/01/05 00:02:20;;;;;;;16.15;4.28;;;;;;;10.05;93.68;101633.84;4920313;29;20025;-62
2023/01/05 00:04:45;;;;;;;19.55;4.00;;;;;;;10.06;93.68;101637.34;4918136;29;20072;-63
2023/01/05 00:07:10;;;;;;;18.95;3.33;;;;;;;10.05;93.58;101636.47;4913115;29;20052;-63
2023/01/05 00:09:37;;;;;;;20.27;4.30;;;;;;;10.05;93.46;101632.94;4919151;29;20087;-63
2023/01/05 00:23:02;;;;;;;18.85;3.75;;;;;;;9.98;93.13;101633.53;4926265;29;20068;-64
2023/01/05 00:25:29;;;;;;;19.95;3.85;;;;;;;9.98;93.12;101638.75;4924746;29;20024;-63
2023/01/05 00:27:57;;;;;;;21.42;3.97;;;;;;;9.95;93.09;101642.13;4927681;29;20028;-63
2023/01/05 00:30:29;;;;;;;18.50;4.25;;;;;;;9.92;93.12;101645.50;4913189;29;20020;-63
2023/01/05 00:32:54;;;;;;;19.75;3.50;;;;;;;9.90;93.22;101644.53;4923304;29;20032;-63
2023/01/05 00:35:21;;;;;;;21.30;3.88;;;;;;;9.89;92.55;101645.38;4924124;29;20012;-63
2023/01/05 00:37:46;;;;;;;19.42;3.80;;;;;;;9.87;93.42;101651.34;4922237;29;20047;-63
2023/01/05 00:40:17;;;;;;;19.92;3.42;;;;;;;9.84;93.05;101630.41;4928272;29;20027;-63
2023/01/05 00:42:43;;;;;;;17.85;4.30;;;;;;;9.84;93.40;101635.63;4921036;29;20046;-63
2023/01/05 00:45:11;;;;;;;21.25;4.10;;;;;;;9.82;93.37;101629.44;4924364;29;20338;-63
2023/01/05 00:47:36;;;;;;;25.05;3.72;;;;;;;9.78;93.45;101638.00;4918713;29;20028;-63
2023/01/05 00:50:03;;;;;;;19.45;3.13;;;;;;;9.74;93.56;101631.75;4927579;29;20024;-63
2023/01/05 00:52:28;;;;;;;16.70;3.67;;;;;;;9.70;93.42;101638.56;4927865;29;20031;-63
2023/01/05 00:54:53;;;;;;;19.25;3.50;;;;;;;9.69;93.69;101638.47;4923868;29;20285;-63
2023/01/05 00:57:18;;;;;;;20.90;4.07;;;;;;;9.67;93.52;101629.75;4927836;29;20024;-62
2023/01/05 00:59:44;;;;;;;23.10;4.25;;;;;;;9.64;93.57;101638.31;4915334;29;20302;-63
2023/01/05 01:02:09;;;;;;;19.48;3.70;;;;;;;9.62;93.58;101639.09;4916569;29;20031;-63
2023/01/05 01:04:35;;;;;;;20.77;4.40;;;;;;;9.60;93.50;101644.22;4912642;29;20032;-64
2023/01/05 01:07:02;;;;;;;21.67;4.20;;;;;;;9.57;93.78;101650.19;4910240;29;20035;-63
2023/01/05 01:09:28;;;;;;;20.08;4.47;;;;;;;9.53;94.03;101655.19;4915551;29;20030;-63
2023/01/05 01:11:53;;;;;;;21.70;4.03;;;;;;;9.49;94.35;101649.00;4928754;29;20032;-62
2023/01/05 01:14:18;;;;;;;19.05;4.22;;;;;;;9.46;94.22;101648.88;4927909;29;20024;-63
2023/01/05 01:16:44;;;;;;;18.23;3.80;;;;;;;9.44;94.37;101652.22;4910057;29;20028;-63
2023/01/05 01:19:15;;;;;;;19.05;3.65;;;;;;;9.41;94.36;101650.38;4909869;29;20040;-63
2023/01/05 01:21:41;;;;;;;20.23;4.00;;;;;;;9.38;94.62;101645.97;4925985;29;20201;-63
2023/01/05 01:24:07;;;;;;;15.82;3.42;;;;;;;9.36;94.89;101651.91;4917676;29;20036;-63
2023/01/05 01:26:32;;;;;;;17.63;3.92;;;;;;;9.33;94.92;101663.06;4911724;29;20032;-63
2023/01/05 01:28:57;;;;;;;20.05;4.18;;;;;;;9.31;94.92;101656.03;4919450;29;20259;-63
2023/01/05 01:31:23;;;;;;;22.33;4.00;;;;;;;9.30;95.22;101659.44;4923252;29;20023;-63
2023/01/05 01:33:48;;;;;;;19.25;4.68;;;;;;;9.27;95.14;101661.91;4918633;29;20032;-63
2023/01/05 01:36:14;;;;;;;17.63;4.18;;;;;;;9.22;95.27;101665.25;4924188;29;20029;-63
2023/01/05 01:38:39;;;;;;;19.83;3.78;;;;;;;9.21;95.46;101668.66;4919508;29;20036;-62
2023/01/05 01:41:04;;;;;;;20.45;3.50;;;;;;;9.21;95.59;101672.94;4924862;29;20043;-63
2023/01/05 01:43:41;;;;;;;22.90;4.03;;;;;;;9.18;95.62;101668.53;4919989;29;20326;-63
2023/01/05 01:46:07;;;;;;;18.67;3.88;;;;;;;9.17;95.88;101678.88;4923925;29;20289;-63
2023/01/05 01:48:35;;;;;;;17.55;3.90;;;;;;;9.18;95.82;101670.22;4927436;29;20091;-63
2023/01/05 01:51:56;;;;;;;19.55;4.35;;;;;;;9.18;95.81;101683.22;4925835;29;20044;-62
2023/01/05 01:54:21;;;;;;;23.80;4.15;;;;;;;9.15;96.06;101689.19;4919048;29;20052;-63
2023/01/05 01:56:53;;;;;;;17.38;3.90;;;;;;;9.15;96.40;101678.81;4915016;29;20076;-63
2023/01/05 01:59:18;;;;;;;24.58;4.15;;;;;;;9.16;96.54;101685.75;4924337;29;20239;-63
2023/01/05 02:01:43;;;;;;;22.10;3.78;;;;;;;9.17;96.55;101687.53;4927119;29;20035;-63
2023/01/05 02:04:10;;;;;;;20.50;3.65;;;;;;;9.18;96.73;101686.72;4913213;29;20047;-63
2023/01/05 02:06:36;;;;;;;19.80;3.78;;;;;;;9.20;96.79;101692.00;4908977;29;20076;-62
2023/01/05 02:09:03;;;;;;;16.95;3.53;;;;;;;9.22;96.71;101686.03;4908772;29;20031;-63
2023/01/05 02:11:43;;;;;;;19.02;3.58;;;;;;;9.25;97.03;101697.38;4915595;29;20159;-63
2023/01/05 02:14:25;;;;;;;17.15;3.72;;;;;;;9.27;96.89;101699.22;4911810;29;20342;-63
2023/01/05 02:16:57;;;;;;;20.08;3.90;;;;;;;9.30;96.54;101698.44;4909330;29;20039;-63
2023/01/05 02:19:25;;;;;;;23.85;4.82;;;;;;;9.30;97.56;101701.06;4908681;29;20267;-62
2023/01/05 02:21:56;;;;;;;17.05;3.88;;;;;;;9.31;96.95;101697.63;4910215;29;20047;-63
2023/01/05 02:24:39;;;;;;;19.98;4.68;;;;;;;9.33;97.00;101693.41;4908500;29;20096;-63
2023/01/05 02:27:31;;;;;;;24.05;4.18;;;;;;;9.36;96.74;101706.53;4908586;29;20307;-63
2023/01/05 02:30:12;;;;;;;19.67;4.68;;;;;;;9.38;97.07;101697.97;4925503;29;20279;-63
2023/01/05 02:33:00;;;;;;;17.38;3.75;;;;;;;9.39;96.93;101706.66;4919949;29;20047;-62
2023/01/05 02:35:39;;;;;;;21.30;4.18;;;;;;;9.41;96.76;101705.00;4922929;29;20027;-62
2023/01/05 02:38:14;;;;;;;20.33;4.10;;;;;;;9.42;96.89;101714.59;4925568;29;20274;-69
2023/01/05 02:40:49;;;;;;;17.27;3.70;;;;;;;9.42;96.92;101713.72;4920796;29;20273;-68
2023/01/05 02:43:20;;;;;;;16.55;3.80;;;;;;;9.43;96.81;101711.19;4918052;29;20095;-70
2023/01/05 02:45:46;;;;;;;18.27;3.38;;;;;;;9.44;96.65;101705.13;4908314;29;20028;-69
2023/01/05 02:48:11;;;;;;;20.80;4.00;;;;;;;9.47;96.56;101707.88;4920079;29;20302;-69
2023/01/05 02:51:03;;;;;;;22.60;4.30;;;;;;;9.49;96.39;101706.22;4925682;29;20028;-69
2023/01/05 02:53:41;;;;;;;20.85;4.57;;;;;;;9.52;96.41;101710.66;4923419;29;20044;-68
2023/01/05 02:56:15;;;;;;;21.08;4.15;;;;;;;9.53;96.38;101707.22;4922819;29;20314;-69
2023/01/05 02:58:52;;;;;;;21.98;4.47;;;;;;;9.53;96.07;101715.94;4920084;29;20036;-69
2023/01/05 03:01:26;;;;;;;20.52;4.47;;;;;;;9.54;96.06;101709.91;4911105;29;20035;-71
2023/01/05 03:03:57;;;;;;;24.15;3.88;;;;;;;9.55;96.05;101709.06;4926937;29;20258;-69
2023/01/05 03:06:45;;;;;;;16.88;3.85;;;;;;;9.57;96.03;101704.84;4927022;29;20174;-69
2023/01/05 03:09:16;;;;;;;18.03;3.67;;;;;;;9.61;95.89;101710.16;4926854;29;20024;-69
2023/01/05 03:14:36;;;;;;;20.10;3.95;;;;;;;9.62;95.96;101709.34;4907930;29;20043;-70
2023/01/05 03:17:05;;;;;;;18.80;3.63;;;;;;;9.62;96.00;101711.94;4907862;29;20020;-69
2023/01/05 03:19:40;;;;;;;20.75;4.15;;;;;;;9.63;95.60;101716.31;4921056;29;20122;-69
2023/01/05 03:36:29;;;;;;;21.30;4.22;;;;;;;9.73;94.70;101713.25;4915344;29;20075;-70
2023/01/05 03:38:59;;;;;;;16.85;3.97;;;;;;;9.74;94.77;101722.84;4920976;29;20067;-69
2023/01/05 03:41:26;;;;;;;14.98;3.63;;;;;;;9.75;94.82;101724.63;4922809;29;20024;-69
2023/01/05 03:43:51;;;;;;;16.85;3.53;;;;;;;9.77;94.59;101714.28;4921232;29;20084;-69
2023/01/05 03:46:20;;;;;;;21.70;4.45;;;;;;;9.75;95.05;101728.13;4913812;29;20258;-69
2023/01/05 03:48:46;;;;;;;21.57;3.67;;;;;;;9.75;94.88;101709.91;4923257;29;20054;-69
2023/01/05 03:51:13;;;;;;;17.17;3.78;;;;;;;9.76;94.62;101721.19;4925119;29;20270;-70
2023/01/05 03:53:39;;;;;;;18.08;3.78;;;;;;;9.78;94.58;101713.47;4923069;29;20078;-70
2023/01/05 03:56:04;;;;;;;22.25;3.60;;;;;;;9.81;94.60;101717.06;4924238;29;20013;-69
2023/01/05 03:58:29;;;;;;;18.60;4.13;;;;;;;9.80;95.18;101719.59;4925263;29;20299;-69
2023/01/05 04:00:55;;;;;;;21.25;3.67;;;;;;;9.80;94.90;101723.09;4928703;29;20274;-69
2023/01/05 04:03:20;;;;;;;20.45;3.47;;;;;;;9.80;94.70;101723.09;4922062;29;20059;-69
2023/01/05 04:05:45;;;;;;;18.00;3.80;;;;;;;9.83;94.92;101723.22;4928803;29;20036;-69
2023/01/05 04:08:10;;;;;;;24.30;3.63;;;;;;;9.83;94.25;101728.41;4929886;29;20039;-69
2023/01/05 04:10:36;;;;;;;22.83;4.32;;;;;;;9.85;94.58;101720.69;4928941;29;20070;-69
2023/01/05 04:13:01;;;;;;;18.75;3.20;;;;;;;9.87;94.55;101729.44;4922315;29;20051;-69
2023/01/05 04:15:26;;;;;;;16.23;3.40;;;;;;;9.88;94.56;101719.09;4925427;29;20031;-70
2023/01/05 04:17:52;;;;;;;19.65;3.65;;;;;;;9.92;94.19;101715.78;4920656;29;20028;-70
2023/01/05 04:20:17;;;;;;;17.63;4.03;;;;;;;9.92;94.49;101721.00;4927244;29;20032;-69
2023/01/05 04:22:42;;;;;;;15.48;3.67;;;;;;;9.90;94.47;101725.25;4926068;29;20034;-70
2023/01/05 04:25:08;;;;;;;20.27;4.03;;;;;;;9.90;94.61;101725.25;4929175;29;20159;-70
2023/01/05 04:27:33;;;;;;;18.88;4.18;;;;;;;9.89;94.77;101733.91;4923925;29;20040;-69
2023/01/05 04:29:59;;;;;;;22.15;4.10;;;;;;;9.89;94.62;101731.28;4928143;29;20043;-69
2023/01/05 04:32:24;;;;;;;22.35;4.25;;;;;;;9.90;94.32;101732.16;4926125;29;20053;-70
2023/01/05 04:34:49;;;;;;;19.73;4.38;;;;;;;9.89;94.52;101731.28;4927624;29;20087;-69
2023/01/05 04:37:15;;;;;;;22.27;4.28;;;;;;;9.93;94.09;101721.88;4927601;29;20031;-70
2023/01/05 04:39:40;;;;;;;24.73;4.30;;;;;;;9.94;94.44;101728.00;4918825;29;20027;-70
2023/01/05 04:42:06;;;;;;;24.33;3.75;;;;;;;9.92;94.84;101726.22;4921873;29;20024;-70
2023/01/05 04:44:31;;;;;;;18.90;3.78;;;;;;;9.92;94.69;101728.81;4918370;29;20040;-69
2023/01/05 04:46:56;;;;;;;24.20;4.20;;;;;;;9.90;95.15;101730.44;4928767;29;20111;-70
2023/01/05 04:49:22;;;;;;;22.73;4.13;;;;;;;9.89;94.88;101728.69;4926477;29;20027;-70
2023/01/05 04:51:47;;;;;;;19.20;5.13;;;;;;;9.88;94.95;101726.91;4926982;29;20032;-69
2023/01/05 04:54:12;;;;;;;22.52;4.53;;;;;;;9.88;94.83;101731.25;4927684;29;20024;-70
2023/01/05 04:56:37;;;;;;;19.85;4.38;;;;;;;9.90;95.03;101735.66;4917443;29;20179;-69
2023/01/05 04:59:03;;;;;;;17.95;3.88;;;;;;;9.91;94.76;101737.44;4922740;29;20095;-69
2023/01/05 05:01:28;;;;;;;21.35;4.60;;;;;;;9.92;94.79;101727.91;4921319;29;20107;-69
2023/01/05 05:03:54;;;;;;;16.50;4.13;;;;;;;9.91;94.48;101737.44;4912607;29;20027;-70
2023/01/05 05:06:20;;;;;;;21.50;4.20;;;;;;;9.94;94.58;101735.81;4910245;29;20020;-70
2023/01/05 05:08:46;;;;;;;23.38;4.28;;;;;;;9.96;94.11;101736.75;4923731;29;20055;-69
2023/01/05 05:11:11;;;;;;;23.95;4.68;;;;;;;9.95;94.23;101740.16;4927898;29;20499;-69
2023/01/05 05:13:36;;;;;;;19.35;3.95;;;;;;;9.95;94.41;101742.75;4928801;29;20024;-70
2023/01/05 05:16:02;;;;;;;19.77;3.92;;;;;;;9.96;94.24;101748.03;4928906;29;20087;-69
2023/01/05 05:18:27;;;;;;;19.90;4.18;;;;;;;9.96;94.25;101749.75;4926673;29;20028;-69
2023/01/05 05:20:52;;;;;;;21.20;4.45;;;;;;;9.95;94.79;101761.00;4909911;29;20056;-69
2023/01/05 05:23:18;;;;;;;19.58;4.25;;;;;;;9.94;94.36;101772.25;4916654;29;20028;-70
2023/01/05 05:25:44;;;;;;;18.88;3.97;;;;;;;9.93;94.86;101773.94;4922069;29;20088;-70
2023/01/05 05:28:09;;;;;;;23.35;3.88;;;;;;;9.95;94.34;101763.59;4919195;29;20028;-69
2023/01/05 05:30:36;;;;;;;20.65;4.10;;;;;;;9.97;94.24;101780.19;4926149;29;20282;-70
2023/01/05 05:33:01;;;;;;;21.27;4.20;;;;;;;9.96;94.09;101763.66;4927291;29;20178;-69
2023/01/05 05:35:26;;;;;;;18.13;4.20;;;;;;;9.98;94.46;101759.41;4924165;29;20255;-69
2023/01/05 05:37:52;;;;;;;23.05;4.95;;;;;;;9.97;94.06;101773.25;4919274;29;20080;-63
2023/01/05 05:40:17;;;;;;;24.30;4.28;;;;;;;9.97;94.53;101772.38;4924363;29;20301;-63
2023/01/05 05:42:42;;;;;;;22.00;4.05;;;;;;;9.96;94.46;101776.66;4926149;29;20032;-63
2023/01/05 05:45:08;;;;;;;17.90;4.07;;;;;;;9.96;94.63;101773.19;4916128;29;20028;-63
2023/01/05 05:47:33;;;;;;;19.73;4.50;;;;;;;9.95;94.92;101781.81;4918806;29;20188;-63
2023/01/05 05:49:58;;;;;;;22.75;4.60;;;;;;;9.92;94.79;101779.97;4926159;29;20087;-62
2023/01/05 05:52:24;;;;;;;24.95;4.00;;;;;;;9.92;94.65;101780.88;4925086;29;20023;-62
2023/01/05 05:54:49;;;;;;;23.92;4.85;;;;;;;9.92;94.66;101785.19;4924970;29;20028;-62
2023/01/05 05:57:16;;;;;;;20.52;3.90;;;;;;;9.97;94.26;101782.78;4926448;29;20023;-62
2023/01/05 05:59:41;;;;;;;21.27;3.97;;;;;;;9.95;94.68;101789.63;4924187;29;20044;-63
2023/01/05 06:02:07;;;;;;;22.45;4.00;;;;;;;9.94;94.70;101795.69;4924115;29;20035;-63
2023/01/05 06:04:32;;;;;;;21.80;4.68;;;;;;;9.95;94.81;101807.84;4923564;29;20099;-63
2023/01/05 06:06:57;;;;;;;20.30;4.53;;;;;;;9.99;94.45;101812.38;4919833;29;20205;-63
2023/01/05 06:09:23;;;;;;;18.35;4.13;;;;;;;9.95;94.68;101820.88;4924678;29;20036;-63
2023/01/05 06:11:49;;;;;;;21.13;4.72;;;;;;;9.94;94.68;101814.78;4926603;29;20032;-63
2023/01/05 06:14:14;;;;;;;23.17;4.30;;;;;;;9.92;95.09;101809.50;4923362;29;20140;-63
2023/01/05 06:16:39;;;;;;;24.65;4.65;;;;;;;9.90;95.16;101811.16;4923738;29;20248;-62
2023/01/05 06:19:05;;;;;;;18.63;4.13;;;;;;;9.89;95.26;101817.19;4915335;29;20039;-63
2023/01/05 06:21:30;;;;;;;26.27;4.80;;;;;;;9.88;95.31;101825.81;4924619;29;20028;-63
2023/01/05 06:24:04;;;;;;;26.83;4.95;;;;;;;9.87;95.31;101823.16;4920581;29;20023;-62
2023/01/05 06:26:29;;;;;;;25.00;4.88;;;;;;;9.85;95.47;101837.84;4924521;29;20024;-62
2023/01/05 06:28:55;;;;;;;20.25;4.22;;;;;;;9.86;95.51;101839.59;4916696;29;20030;-63
2023/01/05 06:31:20;;;;;;;19.80;4.05;;;;;;;9.85;95.64;101835.25;4925274;29;20019;-62
2023/01/05 06:33:45;;;;;;;21.45;4.28;;;;;;;9.86;95.41;101837.00;4925066;29;20043;-62
2023/01/05 06:36:11;;;;;;;22.17;4.60;;;;;;;9.86;95.19;101843.09;4923714;29;20032;-70
2023/01/05 06:38:36;;;;;;;19.50;4.15;;;;;;;9.84;96.02;101844.72;4919975;29;20068;-69
2023/01/05 06:41:01;;;;;;;21.98;4.32;;;;;;;9.82;96.43;101849.00;4924877;29;20128;-70
2023/01/05 06:43:27;;;;;;;21.80;4.65;;;;;;;9.82;96.38;101845.50;4924484;29;20032;-70
2023/01/05 06:45:52;;;;;;;19.13;4.20;;;;;;;9.78;96.64;101849.69;4926499;29;20282;-69
2023/01/05 06:48:17;;;;;;;25.85;4.70;;;;;;;9.79;96.58;101867.09;4925375;29;20279;-69
2023/01/05 06:50:43;;;;;;;19.08;4.05;;;;;;;9.79;96.33;101861.88;4926685;29;20163;-70
2023/01/05 06:53:08;;;;;;;24.13;5.15;;;;;;;9.77;96.49;101866.13;4924345;29;20325;-69
2023/01/05 06:55:33;;;;;;;23.02;4.55;;;;;;;9.78;96.38;101862.69;4922146;29;20290;-70
2023/01/05 06:57:59;;;;;;;20.45;4.75;;;;;;;9.79;96.42;101872.31;4920719;29;20091;-69
2023/01/05 07:00:24;;;;;;;22.77;4.22;;;;;;;9.78;96.20;101873.13;4911378;29;20275;-69
2023/01/05 07:02:49;;;;;;;24.52;5.05;;;;;;;9.79;96.19;101872.31;4917680;29;20016;-69
2023/01/05 07:05:15;;;;;;;22.67;4.97;;;;;;;9.80;95.98;101871.44;4922684;29;20200;-69
2023/01/05 07:07:41;;;;;;;25.13;5.07;;;;;;;9.81;96.44;101867.16;4926834;29;20016;-70
2023/01/05 07:10:06;;;;;;;23.17;4.53;;;;;;;9.79;96.79;101872.31;4926864;29;20028;-70
2023/01/05 07:12:32;;;;;;;23.63;4.80;;;;;;;9.77;97.30;101873.94;4926848;29;20026;-69
2023/01/05 07:14:57;;;;;;;22.60;4.80;;;;;;;9.75;97.25;101870.38;4926238;29;20047;-70
2023/01/05 07:17:23;;;;;;;26.92;5.15;;;;;;;9.73;97.61;101880.72;4909428;29;20027;-70
2023/01/05 07:19:48;;;;;;;24.88;4.15;;;;;;;9.72;97.62;101871.13;4907970;29;20028;-69
2023/01/05 07:22:14;;;;;;;24.67;4.75;;;;;;;9.70;98.02;101871.88;4907949;29;21134;-69
2023/01/05 07:24:39;;;;;;;27.23;5.32;;;;;;;9.70;97.55;101875.41;4914438;29;20044;-69
2023/01/05 07:27:04;;;;;;;28.50;4.95;;;;;;;9.69;97.88;101878.81;4907819;29;20087;-69
2023/01/05 07:29:30;;;;;;;26.77;7.07;;;;;;;9.68;97.66;101883.94;4914686;29;20892;-69
2023/01/05 07:31:55;;;;;;;23.35;4.78;;;;;;;9.69;97.48;101886.63;4922105;29;20122;-70
2023/01/05 07:34:21;;;;;;;26.73;5.43;;;;;;;9.69;97.45;101897.03;4926410;29;20254;-70
2023/01/05 07:36:47;;;;;;;28.13;4.78;;;;;;;9.69;97.41;101897.03;4928975;29;20036;-62
2023/01/05 07:39:13;;;;;;;25.48;5.45;;;;;;;9.70;97.28;101890.09;4911770;29;20038;-63
2023/01/05 07:41:38;;;;;;;30.13;5.85;;;;;;;9.68;97.32;101892.63;4920379;29;20034;-63
2023/01/05 07:44:03;;;;;;;24.25;5.18;;;;;;;9.68;97.46;101894.34;4927570;29;20027;-62
2023/01/05 07:46:30;;;;;;;25.20;5.07;;;;;;;9.67;97.25;101898.66;4915920;29;20032;-63
2023/01/05 07:48:56;;;;;;;23.13;4.65;;;;;;;9.68;97.38;101900.44;4922730;29;20028;-63
2023/01/05 07:51:21;;;;;;;29.63;5.45;;;;;;;9.66;97.42;101898.59;4928925;29;20230;-62
2023/01/05 07:53:46;;;;;;;26.73;5.18;;;;;;;9.65;97.49;101904.63;4916023;29;20056;-63
2023/01/05 07:56:13;;;;;;;22.85;5.00;;;;;;;9.65;97.50;101907.25;4921639;29;20111;-63
2023/01/05 07:58:39;;;;;;;26.15;5.05;;;;;;;9.66;97.60;101911.59;4927102;29;20107;-63
2023/01/05 08:01:09;;;;;;;28.75;5.07;;;;;;;9.66;97.56;101906.41;4929038;29;20187;-63
2023/01/05 08:03:34;;;;;;;21.38;4.47;;;;;;;9.66;97.81;101916.81;4929647;29;20091;-63
2023/01/05 08:06:07;;;;;;;19.98;4.47;;;;;;;9.65;97.72;101913.31;4925159;29;20036;-63
2023/01/05 08:08:33;;;;;;;22.85;4.90;;;;;;;9.66;97.68;101916.81;4928580;29;20028;-62
2023/01/05 08:10:58;;;;;;;20.95;5.03;;;;;;;9.67;97.82;101929.00;4928486;29;20064;-62
2023/01/05 08:16:08;;;;;;;27.02;4.85;;;;;;;9.69;97.46;101937.75;4919747;29;20084;-63
2023/01/05 08:18:33;;;;;;;25.88;5.32;;;;;;;9.68;97.33;101934.28;4929909;29;20229;-63
2023/01/05 08:21:03;;;;;;;24.65;5.43;;;;;;;9.68;97.48;101946.41;4928762;29;20028;-63
2023/01/05 08:23:29;;;;;;;25.65;4.72;;;;;;;9.69;97.66;101950.78;4926166;29;20023;-63
2023/01/05 08:25:54;;;;;;;30.48;5.18;;;;;;;9.69;97.55;101945.56;4923060;29;20159;-63
2023/01/05 08:28:20;;;;;;;28.33;5.18;;;;;;;9.68;97.30;101942.09;4928908;29;20075;-63
2023/01/05 08:30:46;;;;;;;27.60;5.07;;;;;;;9.70;97.12;101939.53;4925699;29;20038;-63
2023/01/05 08:33:12;;;;;;;29.33;5.15;;;;;;;9.69;97.03;101943.88;4923875;29;20119;-63
2023/01/05 08:35:41;;;;;;;21.13;4.28;;;;;;;9.70;97.20;101953.47;4937859;29;20282;-63
2023/01/05 08:38:07;;;;;;;26.33;5.78;;;;;;;9.71;96.79;101951.75;4925804;29;20290;-70
2023/01/05 08:40:32;;;;;;;24.13;4.88;;;;;;;9.71;97.10;101954.34;4924838;29;20036;-69
2023/01/05 08:42:57;;;;;;;27.67;5.32;;;;;;;9.73;96.82;101952.69;4921600;29;20087;-69
2023/01/05 08:45:23;;;;;;;23.90;4.93;;;;;;;9.73;97.01;101965.69;4927653;29;20075;-69
2023/01/05 08:47:48;;;;;;;27.60;5.32;;;;;;;9.74;97.47;101964.91;4927221;29;20136;-70
2023/01/05 08:50:13;;;;;;;26.20;5.65;;;;;;;9.73;97.17;101968.31;4924385;29;20020;-69
2023/01/05 08:52:39;;;;;;;27.15;5.40;;;;;;;9.75;96.98;101975.38;4923871;29;20020;-70
2023/01/05 08:55:06;;;;;;;23.63;4.90;;;;;;;9.75;97.25;101977.97;4928348;29;20058;-70
2023/01/05 08:57:32;;;;;;;27.13;4.85;;;;;;;9.76;97.11;101981.47;4924983;29;20044;-70
2023/01/05 08:59:58;;;;;;;27.75;4.88;;;;;;;9.75;97.20;101979.69;4924030;29;20084;-71
2023/01/05 09:02:23;;;;;;;26.33;5.15;;;;;;;9.75;97.28;101984.91;4916678;29;20016;-71
2023/01/05 09:04:49;;;;;;;27.05;4.75;;;;;;;9.76;96.92;101984.06;4928737;29;20024;-70
2023/01/05 09:07:14;;;;;;;29.63;4.82;;;;;;;9.74;96.99;101990.91;4929375;29;20020;-69
2023/01/05 09:09:39;;;;;;;27.42;4.65;;;;;;;9.73;97.11;101990.03;4929422;29;20020;-70
2023/01/05 09:12:05;;;;;;;24.15;4.80;;;;;;;9.74;97.13;101993.53;4928603;29;20028;-69
2023/01/05 09:14:30;;;;;;;32.03;5.25;;;;;;;9.72;97.14;101995.19;4921823;29;20027;-70
2023/01/05 09:16:56;;;;;;;26.63;5.00;;;;;;;9.73;97.25;101997.84;4927169;29;20012;-70
2023/01/05 09:19:21;;;;;;;25.08;4.65;;;;;;;9.77;97.36;102001.47;4912954;29;20279;-70
2023/01/05 09:21:46;;;;;;;20.38;5.10;;;;;;;9.78;97.10;102005.88;4916579;29;20260;-70
2023/01/05 09:24:12;;;;;;;24.38;5.15;;;;;;;9.79;97.24;102002.44;4917640;29;20047;-69
2023/01/05 09:26:38;;;;;;;23.48;5.07;;;;;;;9.78;96.88;101998.06;4918057;29;20028;-69
2023/01/05 09:29:03;;;;;;;25.58;4.50;;;;;;;9.82;96.93;102009.47;4910071;29;20024;-70
2023/01/05 09:31:29;;;;;;;25.33;4.93;;;;;;;9.79;96.86;102012.84;4913437;29;20159;-70
2023/01/05 09:33:56;;;;;;;24.30;4.88;;;;;;;9.80;97.51;102022.44;4927963;29;20031;-70
2023/01/05 09:36:23;;;;;;;24.08;4.90;;;;;;;9.82;97.15;102012.06;4929042;29;20048;-70
2023/01/05 09:38:49;;;;;;;24.75;5.20;;;;;;;9.83;97.15;102022.56;4922936;29;20024;-70
2023/01/05 09:41:21;;;;;;;19.63;4.63;;;;;;;9.84;97.47;102016.53;4926295;29;20061;-70
2023/01/05 09:43:50;;;;;;;23.42;4.45;;;;;;;9.86;97.17;102025.34;4927584;29;20055;-69
2023/01/05 09:46:21;;;;;;;24.08;4.47;;;;;;;9.87;97.16;102024.50;4925146;29;20032;-69
2023/01/05 09:48:51;;;;;;;22.77;5.10;;;;;;;9.86;97.28;102027.03;4923128;29;20020;-69
2023/01/05 09:51:17;;;;;;;23.40;4.82;;;;;;;9.86;97.21;102037.44;4922357;29;20024;-70
2023/01/05 09:53:42;;;;;;;28.08;4.82;;;;;;;9.87;97.41;102034.91;4925648;29;20080;-69
2023/01/05 09:56:20;;;;;;;22.17;5.00;;;;;;;9.88;97.30;102039.28;4922380;29;20285;-69
2023/01/05 09:58:52;;;;;;;21.85;4.90;;;;;;;9.87;97.34;102040.09;4923806;29;20197;-69
2023/01/05 10:01:19;;;;;;;25.77;4.80;;;;;;;9.88;97.61;102036.69;4920539;29;20080;-69
2023/01/05 10:03:58;;;;;;;27.15;4.80;;;;;;;9.90;97.78;102039.38;4935903;29;20008;-69
2023/01/05 10:06:28;;;;;;;26.67;5.65;;;;;;;9.95;98.07;102047.38;4917407;29;20029;-69
2023/01/05 10:08:55;;;;;;;33.72;6.18;;;;;;;9.99;98.03;102047.59;4925157;29;20023;-69
2023/01/05 10:14:34;;;;;;;21.88;4.45;;;;;;;10.04;97.21;102053.91;4886739;29;20097;-67
2023/01/05 10:16:59;;;;;;;32.60;4.93;;;;;;;10.05;97.54;102049.56;4922473;29;20032;-68
2023/01/05 10:19:24;;;;;;;30.35;5.28;;;;;;;10.05;97.17;102050.50;4922881;29;20293;-67
2023/01/05 10:21:52;;;;;;;26.10;5.90;;;;;;;10.06;96.72;102049.63;4918436;29;20186;-67
2023/01/05 10:24:45;;;;;;;25.27;5.22;;;;;;;10.04;97.47;102051.28;4925666;29;20035;-67
2023/01/05 10:27:21;;;;;;;28.65;4.93;;;;;;;10.05;97.40;102055.69;4926649;29;20070;-67
2023/01/05 10:29:48;;;;;;;22.23;4.85;;;;;;;10.04;97.59;102063.44;4927326;29;20067;-67
2023/01/05 10:32:24;;;;;;;27.55;6.10;;;;;;;10.04;97.12;102064.31;4927798;29;20023;-67
2023/01/05 10:34:56;;;;;;;22.75;5.00;;;;;;;10.04;97.37;102072.13;4926110;29;20052;-67
2023/01/05 10:37:40;;;;;;;25.52;5.47;;;;;;;10.04;97.25;102068.66;4919624;29;20190;-67
2023/01/05 10:40:08;;;;;;;27.08;4.75;;;;;;;10.06;97.19;102067.00;4915826;29;20054;-67
2023/01/05 10:42:42;;;;;;;25.38;5.03;;;;;;;10.09;97.41;102059.31;4926326;29;20012;-67
2023/01/05 10:45:14;;;;;;;25.08;5.40;;;;;;;10.11;97.35;102062.91;4927091;29;20230;-67
2023/01/05 10:47:40;;;;;;;22.75;4.85;;;;;;;10.13;97.13;102062.97;4927445;29;20012;-67
2023/01/05 10:50:26;;;;;;;26.90;5.10;;;;;;;10.13;96.85;102061.22;4923357;29;20016;-67
2023/01/05 10:52:53;;;;;;;29.30;5.95;;;;;;;10.14;97.13;102056.91;4926185;29;20020;-67
2023/01/05 10:55:19;;;;;;;25.38;4.85;;;;;;;10.14;96.84;102063.03;4927047;29;20020;-68
2023/01/05 10:57:45;;;;;;;26.60;5.28;;;;;;;10.16;96.65;102063.97;4927280;29;20091;-67
2023/01/05 11:00:37;;;;;;;26.85;5.80;;;;;;;10.16;96.23;102065.69;4924609;29;20040;-67
2023/01/05 11:03:03;;;;;;;24.88;5.25;;;;;;;10.15;96.65;102058.69;4916304;29;20048;-67
2023/01/05 11:05:40;;;;;;;24.38;5.70;;;;;;;10.16;97.02;102063.97;4927003;29;20087;-68
2023/01/05 11:08:32;;;;;;;33.10;6.22;;;;;;;10.22;97.14;102071.19;4926404;29;20196;-67
2023/01/05 11:11:01;;;;;;;31.02;6.10;;;;;;;10.26;96.01;102073.97;4924058;29;20039;-67
2023/01/05 11:13:36;;;;;;;20.88;5.68;;;;;;;10.31;96.19;102075.91;4926962;29;20087;-67
2023/01/05 11:16:20;;;;;;;21.05;5.13;;;;;;;10.33;96.27;102071.66;4926911;29;20067;-67
2023/01/05 11:18:51;;;;;;;25.80;5.68;;;;;;;10.37;95.50;102076.19;4926802;29;20096;-67
2023/01/05 11:21:23;;;;;;;28.35;5.53;;;;;;;10.38;95.44;102063.25;4924625;29;20020;-68
2023/01/05 11:23:57;;;;;;;24.38;5.80;;;;;;;10.37;94.84;102068.38;4924884;29;20023;-67
2023/01/05 11:26:35;;;;;;;36.97;6.57;;;;;;;10.36;94.71;102069.22;4924919;29;20035;-67
2023/01/05 11:29:03;;;;;;;28.08;5.63;;;;;;;10.32;95.09;102067.28;4926826;29;20023;-68
2023/01/05 11:31:34;;;;;;;28.17;6.07;;;;;;;10.27;94.86;102067.06;4919827;29;20281;-67
2023/01/05 11:34:08;;;;;;;27.58;6.00;;;;;;;10.21;95.01;102059.88;4927018;29;20016;-67
2023/01/05 11:36:33;;;;;;;29.52;6.32;;;;;;;10.18;95.13;102057.13;4926704;29;20042;-61
2023/01/05 11:38:59;;;;;;;33.35;6.57;;;;;;;10.16;95.38;102056.16;4926669;29;20223;-61
2023/01/05 11:41:24;;;;;;;25.77;6.22;;;;;;;10.13;95.24;102058.63;4921043;29;20032;-61
2023/01/05 11:43:53;;;;;;;24.25;6.07;;;;;;;10.14;95.45;102051.69;4926696;29;20028;-61
2023/01/05 11:46:19;;;;;;;31.27;6.97;;;;;;;10.14;95.47;102055.22;4919490;29;20314;-61
2023/01/05 11:48:56;;;;;;;30.70;6.15;;;;;;;10.15;96.03;102054.38;4907625;29;20020;-61
2023/01/05 11:51:38;;;;;;;23.88;5.57;;;;;;;10.15;95.39;102051.75;4913512;29;20024;-61
2023/01/05 11:54:23;;;;;;;26.10;6.75;;;;;;;10.16;95.05;102055.28;4912206;29;20225;-61
2023/01/05 11:57:04;;;;;;;29.75;6.03;;;;;;;10.15;94.94;102054.38;4922041;29;20072;-61
2023/01/05 11:59:30;;;;;;;32.00;6.13;;;;;;;10.16;95.15;102048.34;4913528;29;20040;-61
2023/01/05 12:02:18;;;;;;;28.33;6.20;;;;;;;10.21;95.41;102043.34;4916563;29;20032;-61
2023/01/05 12:05:16;;;;;;;24.20;6.00;;;;;;;10.22;95.24;102040.78;4915671;29;20184;-61